createdAt,value
2023-10-11T00:01:24.214Z,87.70
2023-10-11T00:03:56.133Z,87.88
2023-10-11T00:06:27.455Z,87.71
2023-10-11T00:08:56.135Z,87.73
2023-10-11T00:11:29.407Z,87.81
2023-10-11T00:13:58.506Z,87.90
2023-10-11T00:16:29.050Z,87.93
2023-10-11T00:18:57.881Z,87.83
2023-10-11T00:21:41.914Z,87.80
2023-10-11T00:24:11.094Z,87.98
2023-10-11T00:26:42.454Z,88.03
2023-10-11T00:29:13.374Z,88.00
2023-10-11T00:31:42.557Z,88.07
2023-10-11T00:34:14.312Z,88.25
2023-10-11T00:36:46.889Z,88.07
2023-10-11T00:39:19.376Z,88.02
2023-10-11T00:41:50.867Z,88.01
2023-10-11T00:44:22.265Z,87.95
2023-10-11T00:46:57.429Z,88.02
2023-10-11T00:49:36.937Z,88.10
2023-10-11T00:52:08.444Z,88.02
2023-10-11T00:54:45.327Z,88.03
2023-10-11T00:57:17.252Z,88.18
2023-10-11T00:59:46.432Z,88.31
2023-10-11T01:02:16.174Z,88.49
2023-10-11T01:04:46.033Z,88.48
2023-10-11T01:07:15.148Z,88.47
2023-10-11T01:09:45.211Z,88.55
2023-10-11T01:12:15.251Z,88.43
2023-10-11T01:15:01.009Z,88.43
2023-10-11T01:17:33.393Z,88.39
2023-10-11T01:20:03.297Z,88.33
2023-10-11T01:22:32.609Z,88.34
2023-10-11T01:25:02.601Z,88.35
2023-10-11T01:27:34.433Z,88.56
2023-10-11T01:30:05.102Z,88.50
2023-10-11T01:32:36.333Z,88.34
2023-10-11T01:35:12.847Z,88.28
2023-10-11T01:37:45.571Z,88.26
2023-10-11T01:40:22.119Z,88.40
2023-10-11T01:42:53.899Z,88.46
2023-10-11T01:45:24.587Z,88.49
2023-10-11T01:47:58.277Z,88.59
2023-10-11T01:50:29.527Z,88.70
2023-10-11T01:52:58.109Z,88.62
2023-10-11T01:55:26.961Z,88.75
2023-10-11T01:57:55.729Z,88.76
2023-10-11T02:00:31.233Z,88.76
2023-10-11T02:03:00.231Z,88.83
2023-10-11T02:05:33.011Z,88.74
2023-10-11T02:08:05.842Z,88.72
2023-10-11T02:10:38.240Z,88.74
2023-10-11T02:13:11.173Z,88.76
2023-10-11T02:15:41.786Z,88.75
2023-10-11T02:18:12.117Z,88.81
2023-10-11T02:20:46.014Z,88.85
2023-10-11T02:23:15.356Z,88.98
2023-10-11T02:25:45.347Z,88.99
2023-10-11T02:28:16.424Z,89.03
2023-10-11T02:30:45.180Z,89.07
2023-10-11T02:33:13.745Z,89.10
2023-10-11T02:35:57.321Z,89.06
2023-10-11T02:38:27.341Z,89.03
2023-10-11T02:40:59.026Z,88.97
2023-10-11T02:43:28.170Z,88.90
2023-10-11T02:46:00.783Z,88.96
2023-10-11T02:48:29.649Z,89.13
2023-10-11T02:51:00.209Z,89.22
2023-10-11T02:53:30.344Z,89.06
2023-10-11T02:56:00.622Z,88.97
2023-10-11T02:58:31.711Z,88.82
2023-10-11T03:01:19.696Z,88.86
2023-10-11T03:03:56.010Z,89.08
2023-10-11T03:06:28.876Z,89.25
2023-10-11T03:08:57.660Z,89.25
2023-10-11T03:11:27.468Z,89.32
2023-10-11T03:13:56.628Z,89.30
2023-10-11T03:16:25.805Z,89.27
2023-10-11T03:18:54.897Z,89.25
2023-10-11T03:21:35.063Z,89.20
2023-10-11T03:24:07.490Z,89.12
2023-10-11T03:26:40.092Z,88.98
2023-10-11T03:29:19.868Z,88.93
2023-10-11T03:31:49.407Z,88.84
2023-10-11T03:34:21.215Z,89.07
2023-10-11T03:37:01.004Z,89.01
2023-10-11T03:39:38.781Z,88.89
2023-10-11T03:42:09.211Z,88.97
2023-10-11T03:44:41.702Z,89.06
2023-10-11T03:47:10.721Z,89.04
2023-10-11T03:49:42.414Z,89.01
2023-10-11T03:52:24.457Z,89.16
2023-10-11T03:54:56.316Z,89.13
2023-10-11T03:57:24.826Z,89.07
2023-10-11T03:59:54.014Z,89.08
2023-10-11T04:02:24.598Z,89.09
2023-10-11T04:04:53.182Z,89.04
2023-10-11T04:07:24.491Z,89.29
2023-10-11T04:09:53.339Z,89.29
2023-10-11T04:12:26.598Z,89.20
2023-10-11T04:14:59.310Z,89.26
2023-10-11T04:17:28.211Z,89.41
2023-10-11T04:20:18.646Z,89.36
2023-10-11T04:23:03.175Z,89.38
2023-10-11T04:25:34.237Z,89.29
2023-10-11T04:28:04.375Z,89.26
2023-10-11T04:30:46.019Z,89.36
2023-10-11T04:33:22.325Z,89.38
2023-10-11T04:35:57.864Z,89.41
2023-10-11T04:38:26.557Z,89.39
2023-10-11T04:40:55.517Z,89.36
2023-10-11T04:43:23.964Z,89.38
2023-10-11T04:46:01.624Z,89.40
2023-10-11T04:48:41.587Z,89.50
2023-10-11T04:51:30.929Z,89.42
2023-10-11T04:54:00.483Z,89.68
2023-10-11T04:56:42.011Z,89.80
2023-10-11T04:59:13.808Z,89.58
2023-10-11T05:02:00.488Z,89.56
2023-10-11T05:04:33.095Z,89.63
2023-10-11T05:07:11.544Z,89.57
2023-10-11T05:09:41.357Z,89.77
2023-10-11T05:12:14.500Z,89.79
2023-10-11T05:14:47.107Z,89.83
2023-10-11T05:17:17.197Z,89.98
2023-10-11T05:19:58.328Z,89.89
2023-10-11T05:22:29.935Z,89.76
2023-10-11T05:25:02.400Z,89.63
2023-10-11T05:27:35.616Z,89.52
2023-10-11T05:30:15.457Z,89.54
2023-10-11T05:32:56.306Z,89.69
2023-10-11T05:35:47.362Z,89.68
2023-10-11T05:38:39.445Z,89.61
2023-10-11T05:41:32.119Z,89.68
2023-10-11T05:44:20.475Z,89.84
2023-10-11T05:47:08.116Z,89.93
2023-10-11T05:49:56.129Z,89.73
2023-10-11T05:52:27.104Z,89.67
2023-10-11T05:54:57.362Z,89.71
2023-10-11T05:57:29.457Z,89.65
2023-10-11T06:00:08.459Z,89.68
2023-10-11T06:02:39.732Z,89.55
2023-10-11T06:05:15.908Z,89.58
2023-10-11T06:07:44.589Z,89.75
2023-10-11T06:10:19.447Z,89.91
2023-10-11T06:12:48.130Z,89.86
2023-10-11T06:15:20.234Z,89.85
2023-10-11T06:17:56.895Z,89.79
2023-10-11T06:20:29.008Z,89.77
2023-10-11T06:22:58.903Z,89.84
2023-10-11T06:25:48.000Z,89.63
2023-10-11T06:28:17.165Z,89.64
2023-10-11T06:30:49.870Z,89.75
2023-10-11T06:33:23.308Z,89.86
2023-10-11T06:35:52.057Z,89.94
2023-10-11T06:38:23.203Z,89.96
2023-10-11T06:40:59.857Z,89.70
2023-10-11T06:43:29.196Z,89.39
2023-10-11T06:46:03.474Z,89.73
2023-10-11T06:48:32.389Z,89.50
2023-10-11T06:51:02.471Z,89.49
2023-10-11T06:53:31.174Z,89.63
2023-10-11T06:56:00.502Z,89.26
2023-10-11T06:58:29.515Z,89.20
2023-10-11T07:00:59.014Z,88.93
2023-10-11T07:03:28.724Z,89.38
2023-10-11T07:06:11.778Z,89.23
2023-10-11T07:08:54.874Z,88.92
2023-10-11T07:11:52.063Z,88.68
2023-10-11T07:14:26.798Z,88.73
2023-10-11T07:16:55.937Z,88.26
2023-10-11T07:19:25.049Z,88.77
2023-10-11T07:21:53.643Z,88.18
2023-10-11T07:24:34.763Z,88.40
2023-10-11T07:27:14.279Z,88.13
2023-10-11T07:29:51.138Z,87.95
2023-10-11T07:32:21.046Z,87.42
2023-10-11T07:34:50.508Z,86.89
2023-10-11T07:37:28.182Z,87.42
2023-10-11T07:40:02.148Z,87.31
2023-10-11T07:42:39.791Z,87.04
2023-10-11T07:45:17.043Z,86.81
2023-10-11T07:47:53.269Z,86.36
2023-10-11T07:50:24.578Z,86.33
2023-10-11T07:52:57.112Z,86.04
2023-10-11T07:55:27.921Z,85.97
2023-10-11T07:58:04.587Z,85.67
2023-10-11T08:00:33.850Z,84.79
2023-10-11T08:03:06.294Z,85.10
2023-10-11T08:05:38.506Z,84.94
2023-10-11T08:08:07.115Z,84.50
2023-10-11T08:10:35.636Z,84.23
2023-10-11T08:13:04.703Z,83.83
2023-10-11T08:15:33.473Z,83.59
2023-10-11T08:18:05.033Z,83.47
2023-10-11T08:20:35.517Z,83.19
2023-10-11T08:23:09.822Z,82.94
2023-10-11T08:25:41.332Z,82.46
2023-10-11T08:28:14.505Z,82.15
2023-10-11T08:30:47.878Z,82.20
2023-10-11T08:33:16.661Z,82.23
2023-10-11T08:35:47.818Z,82.19
2023-10-11T08:38:19.713Z,82.15
2023-10-11T08:40:52.387Z,82.14
2023-10-11T08:43:23.099Z,81.94
2023-10-11T08:46:01.706Z,81.78
2023-10-11T08:48:31.169Z,81.19
2023-10-11T08:51:03.882Z,81.16
2023-10-11T08:53:32.809Z,81.08
2023-10-11T08:56:01.648Z,81.12
2023-10-11T08:58:30.731Z,81.35
2023-10-11T09:01:01.981Z,80.69
2023-10-11T09:03:34.254Z,80.55
2023-10-11T09:06:04.122Z,80.25
2023-10-11T09:08:34.879Z,79.94
2023-10-11T09:11:17.473Z,79.51
2023-10-11T09:13:46.227Z,79.96
2023-10-11T09:16:38.268Z,80.01
2023-10-11T09:19:10.971Z,79.58
2023-10-11T09:21:40.758Z,79.06
2023-10-11T09:24:29.340Z,78.24
2023-10-11T09:27:17.082Z,78.20
2023-10-11T09:29:49.484Z,77.51
2023-10-11T09:32:28.998Z,77.23
2023-10-11T09:34:58.501Z,77.46
2023-10-11T09:37:31.090Z,76.95
2023-10-11T09:40:10.161Z,77.04
2023-10-11T09:42:44.680Z,76.43
2023-10-11T09:45:18.709Z,76.55
2023-10-11T09:47:47.475Z,76.07
2023-10-11T09:50:17.407Z,75.84
2023-10-11T09:52:48.796Z,75.75
2023-10-11T09:55:21.581Z,75.49
2023-10-11T09:58:09.950Z,75.23
2023-10-11T10:00:56.502Z,74.56
2023-10-11T10:03:26.812Z,74.57
2023-10-11T10:06:12.050Z,74.41
2023-10-11T10:08:41.727Z,74.31
2023-10-11T10:11:13.853Z,73.94
2023-10-11T10:14:26.683Z,73.88
2023-10-11T10:17:14.650Z,73.67
2023-10-11T10:19:45.615Z,73.53
2023-10-11T10:22:21.448Z,73.53
2023-10-11T10:24:56.287Z,73.26
2023-10-11T10:27:35.040Z,72.92
2023-10-11T10:30:09.095Z,72.64
2023-10-11T10:32:40.150Z,72.48
2023-10-11T10:35:20.929Z,72.56
2023-10-11T10:37:57.133Z,72.22
2023-10-11T10:40:28.150Z,72.07
2023-10-11T10:43:22.195Z,71.93
2023-10-11T10:45:52.850Z,71.87
2023-10-11T10:48:25.258Z,71.52
2023-10-11T10:51:07.499Z,71.39
2023-10-11T10:54:05.793Z,71.16
2023-10-11T10:56:34.584Z,71.24
2023-10-11T10:59:13.768Z,71.05
2023-10-11T11:01:48.087Z,70.78
2023-10-11T11:04:22.507Z,70.63
2023-10-11T11:06:54.414Z,70.43
2023-10-11T11:09:30.606Z,70.10
2023-10-11T11:12:21.808Z,69.99
2023-10-11T11:15:10.681Z,69.79
2023-10-11T11:17:48.886Z,68.93
2023-10-11T11:20:40.751Z,68.85
2023-10-11T11:23:23.620Z,69.05
2023-10-11T11:25:55.546Z,69.10
2023-10-11T11:28:27.638Z,68.83
2023-10-11T11:30:58.946Z,68.43
2023-10-11T11:33:36.638Z,68.40
2023-10-11T11:36:15.921Z,68.41
2023-10-11T11:38:52.005Z,68.32
2023-10-11T11:41:27.967Z,68.09
2023-10-11T11:43:57.940Z,67.91
2023-10-11T11:46:30.855Z,67.69
2023-10-11T11:49:01.658Z,67.53
2023-10-11T11:51:30.685Z,67.69
2023-10-11T11:53:59.465Z,67.65
2023-10-11T11:56:30.289Z,67.64
2023-10-11T11:59:01.865Z,67.65
2023-10-11T12:01:31.049Z,67.52
2023-10-11T12:04:00.842Z,67.39
2023-10-11T12:06:36.972Z,67.19
2023-10-11T12:09:06.605Z,67.15
2023-10-11T12:11:37.656Z,66.95
2023-10-11T12:14:12.134Z,66.70
2023-10-11T12:16:44.543Z,66.66
2023-10-11T12:19:15.307Z,66.49
2023-10-11T12:21:44.462Z,66.45
2023-10-11T12:24:28.239Z,66.27
2023-10-11T12:27:02.125Z,66.18
2023-10-11T12:29:31.179Z,66.04
2023-10-11T12:32:02.992Z,66.06
2023-10-11T12:34:33.584Z,65.94
2023-10-11T12:37:03.867Z,65.76
2023-10-11T12:39:34.683Z,65.68
2023-10-11T12:42:03.418Z,65.57
2023-10-11T12:44:32.127Z,65.46
2023-10-11T12:47:00.829Z,65.39
2023-10-11T12:49:29.628Z,65.29
2023-10-11T12:51:58.190Z,65.26
2023-10-11T12:54:27.153Z,65.19
2023-10-11T12:56:55.898Z,65.10
2023-10-11T12:59:24.456Z,64.99
2023-10-11T13:01:59.148Z,64.70
2023-10-11T13:04:38.620Z,64.64
2023-10-11T13:07:15.388Z,64.52
2023-10-11T13:09:46.310Z,64.49
2023-10-11T13:12:19.720Z,64.19
2023-10-11T13:14:52.634Z,63.93
2023-10-11T13:17:21.492Z,63.89
2023-10-11T13:19:52.679Z,63.94
2023-10-11T13:22:21.639Z,63.79
2023-10-11T13:24:51.275Z,63.74
2023-10-11T13:27:23.629Z,63.54
2023-10-11T13:29:55.648Z,63.44
2023-10-11T13:32:24.502Z,63.18
2023-10-11T13:34:53.814Z,63.32
2023-10-11T13:37:23.793Z,63.40
2023-10-11T13:39:52.320Z,63.29
2023-10-11T13:42:20.905Z,63.32
2023-10-11T13:44:50.071Z,63.22
2023-10-11T13:47:18.672Z,63.21
2023-10-11T13:49:49.197Z,63.29
2023-10-11T13:52:20.997Z,63.25
2023-10-11T13:54:53.939Z,63.19
2023-10-11T13:57:25.384Z,63.02
2023-10-11T13:59:57.969Z,63.01
2023-10-11T14:02:33.277Z,62.98
2023-10-11T14:05:05.788Z,62.81
2023-10-11T14:07:38.545Z,62.83
2023-10-11T14:10:18.349Z,62.79
2023-10-11T14:12:47.523Z,62.79
2023-10-11T14:15:19.807Z,62.78
2023-10-11T14:17:50.983Z,62.88
2023-10-11T14:20:26.633Z,62.80
2023-10-11T14:22:59.519Z,62.65
2023-10-11T14:25:28.277Z,62.68
2023-10-11T14:27:56.935Z,62.61
2023-10-11T14:30:26.089Z,62.54
2023-10-11T14:32:54.919Z,62.60
2023-10-11T14:35:26.121Z,62.65
2023-10-11T14:37:55.209Z,62.58
2023-10-11T14:40:26.144Z,62.51
2023-10-11T14:42:54.717Z,62.51
2023-10-11T14:45:23.776Z,62.46
2023-10-11T14:47:54.452Z,62.46
2023-10-11T14:50:27.421Z,62.28
2023-10-11T14:52:56.534Z,62.31
2023-10-11T14:55:25.984Z,62.40
2023-10-11T14:57:55.504Z,62.35
2023-10-11T15:00:26.544Z,62.46
2023-10-11T15:02:59.356Z,62.43
2023-10-11T15:05:38.131Z,62.25
2023-10-11T15:08:07.167Z,62.36
2023-10-11T15:10:37.019Z,62.29
2023-10-11T15:13:06.958Z,62.35
2023-10-11T15:15:36.009Z,62.38
2023-10-11T15:18:05.708Z,62.26
2023-10-11T15:20:34.881Z,62.24
2023-10-11T15:23:03.488Z,62.32
2023-10-11T15:25:33.228Z,62.27
2023-10-11T15:28:01.987Z,62.28
2023-10-11T15:30:30.899Z,62.43
2023-10-11T15:32:59.901Z,62.48
2023-10-11T15:35:28.656Z,62.54
2023-10-11T15:37:57.203Z,62.62
2023-10-11T15:40:28.539Z,62.65
2023-10-11T15:43:01.468Z,62.64
2023-10-11T15:45:33.420Z,62.67
2023-10-11T15:48:03.505Z,62.76
2023-10-11T15:50:33.045Z,62.73
2023-10-11T15:53:02.190Z,62.78
2023-10-11T15:55:30.886Z,62.89
2023-10-11T15:57:59.639Z,62.98
2023-10-11T16:00:33.016Z,63.03
2023-10-11T16:03:06.762Z,63.17
2023-10-11T16:05:35.999Z,63.40
2023-10-11T16:08:07.949Z,63.40
2023-10-11T16:10:36.770Z,63.42
2023-10-11T16:13:05.494Z,63.43
2023-10-11T16:15:34.393Z,63.48
2023-10-11T16:18:04.631Z,63.53
2023-10-11T16:20:33.559Z,63.70
2023-10-11T16:23:02.500Z,63.80
2023-10-11T16:25:38.258Z,63.97
2023-10-11T16:28:11.177Z,63.89
2023-10-11T16:30:41.041Z,63.96
2023-10-11T16:33:10.061Z,64.03
2023-10-11T16:35:39.469Z,64.07
2023-10-11T16:38:09.100Z,64.22
2023-10-11T16:40:37.765Z,64.47
2023-10-11T16:43:07.016Z,64.51
2023-10-11T16:45:39.602Z,64.73
2023-10-11T16:48:20.259Z,64.66
2023-10-11T16:50:50.474Z,64.82
2023-10-11T16:53:19.073Z,65.18
2023-10-11T16:55:47.861Z,65.40
2023-10-11T16:58:16.978Z,65.43
2023-10-11T17:00:46.240Z,65.47
2023-10-11T17:03:15.460Z,65.41
2023-10-11T17:06:03.567Z,65.51
2023-10-11T17:08:44.593Z,65.56
2023-10-11T17:11:31.597Z,65.63
2023-10-11T17:14:25.966Z,65.78
2023-10-11T17:17:04.642Z,65.64
2023-10-11T17:19:38.357Z,65.78
2023-10-11T17:22:12.724Z,65.89
2023-10-11T17:24:56.506Z,65.96
2023-10-11T17:27:33.408Z,65.96
2023-10-11T17:30:08.338Z,66.25
2023-10-11T17:32:47.374Z,66.44
2023-10-11T17:35:25.873Z,66.54
2023-10-11T17:37:59.764Z,66.71
2023-10-11T17:40:33.264Z,66.79
2023-10-11T17:43:04.951Z,66.82
2023-10-11T17:45:45.017Z,66.73
2023-10-11T17:48:15.693Z,66.99
2023-10-11T17:50:44.887Z,66.90
2023-10-11T17:53:14.471Z,66.75
2023-10-11T17:55:44.039Z,66.73
2023-10-11T17:58:12.717Z,66.91
2023-10-11T18:00:41.286Z,67.01
2023-10-11T18:03:11.048Z,67.14
2023-10-11T18:05:40.731Z,67.20
2023-10-11T18:08:09.302Z,67.27
2023-10-11T18:10:39.471Z,67.26
2023-10-11T18:13:08.618Z,67.27
2023-10-11T18:15:39.191Z,67.34
2023-10-11T18:18:10.242Z,67.40
2023-10-11T18:20:39.614Z,67.52
2023-10-11T18:23:22.514Z,67.58
2023-10-11T18:25:53.410Z,67.63
2023-10-11T18:28:22.103Z,67.75
2023-10-11T18:30:51.414Z,67.77
2023-10-11T18:33:22.523Z,67.75
2023-10-11T18:35:51.130Z,67.74
2023-10-11T18:38:19.643Z,67.73
2023-10-11T18:40:49.933Z,67.78
2023-10-11T18:43:18.886Z,67.78
2023-10-11T18:45:47.488Z,67.80
2023-10-11T18:48:16.623Z,67.80
2023-10-11T18:50:46.530Z,67.78
2023-10-11T18:53:15.040Z,67.80
2023-10-11T18:55:44.718Z,67.83
2023-10-11T18:58:13.661Z,67.89
2023-10-11T19:00:42.545Z,67.91
2023-10-11T19:03:11.936Z,67.86
2023-10-11T19:05:43.027Z,67.95
2023-10-11T19:08:15.096Z,67.88
2023-10-11T19:10:44.065Z,67.87
2023-10-11T19:13:17.142Z,67.82
2023-10-11T19:15:46.026Z,67.93
2023-10-11T19:18:18.424Z,67.83
2023-10-11T19:20:47.760Z,67.83
2023-10-11T19:23:18.672Z,67.87
2023-10-11T19:26:00.079Z,67.81
2023-10-11T19:28:31.866Z,67.81
2023-10-11T19:31:01.383Z,67.76
2023-10-11T19:33:31.248Z,67.73
2023-10-11T19:36:14.411Z,67.67
2023-10-11T19:38:43.053Z,67.71
2023-10-11T19:41:12.751Z,67.70
2023-10-11T19:43:41.791Z,67.74
2023-10-11T19:46:14.915Z,67.65
2023-10-11T19:48:44.698Z,67.59
2023-10-11T19:51:15.746Z,67.58
2023-10-11T19:53:44.625Z,67.52
2023-10-11T19:56:15.570Z,67.52
2023-10-11T19:58:47.192Z,67.48
2023-10-11T20:01:24.686Z,67.53
2023-10-11T20:03:54.883Z,67.53
2023-10-11T20:06:24.333Z,67.51
2023-10-11T20:08:55.143Z,67.52
2023-10-11T20:11:24.848Z,67.50
2023-10-11T20:13:54.425Z,67.51
2023-10-11T20:16:23.222Z,67.47
2023-10-11T20:18:52.187Z,67.47
2023-10-11T20:21:21.832Z,67.44
2023-10-11T20:23:56.095Z,67.43
2023-10-11T20:26:26.219Z,67.45
2023-10-11T20:28:58.674Z,67.42
2023-10-11T20:31:27.584Z,67.40
2023-10-11T20:33:58.605Z,67.47
2023-10-11T20:36:27.679Z,67.44
2023-10-11T20:38:56.912Z,67.39
2023-10-11T20:41:25.564Z,67.40
2023-10-11T20:43:55.247Z,67.50
2023-10-11T20:46:24.766Z,67.49
2023-10-11T20:48:56.641Z,67.46
2023-10-11T20:51:26.405Z,67.45
2023-10-11T20:53:57.190Z,67.49
2023-10-11T20:56:29.595Z,67.48
2023-10-11T20:59:07.745Z,67.41
2023-10-11T21:01:38.183Z,67.50
2023-10-11T21:04:07.643Z,67.41
2023-10-11T21:06:36.427Z,67.42
2023-10-11T21:09:06.133Z,67.47
2023-10-11T21:11:35.198Z,67.43
2023-10-11T21:14:04.513Z,67.40
2023-10-11T21:16:35.616Z,67.39
2023-10-11T21:19:04.678Z,67.50
2023-10-11T21:21:34.105Z,67.41
2023-10-11T21:24:02.825Z,67.48
2023-10-11T21:26:32.425Z,67.40
2023-10-11T21:29:02.212Z,67.41
2023-10-11T21:31:33.612Z,67.33
2023-10-11T21:34:02.789Z,67.28
2023-10-11T21:36:31.360Z,67.22
2023-10-11T21:39:00.255Z,67.29
2023-10-11T21:41:29.286Z,67.29
2023-10-11T21:43:57.777Z,67.31
2023-10-11T21:46:26.733Z,67.26
2023-10-11T21:48:55.840Z,67.27
2023-10-11T21:51:26.069Z,67.22
2023-10-11T21:53:55.953Z,67.35
2023-10-11T21:56:27.202Z,67.27
2023-10-11T21:58:55.698Z,67.26
2023-10-11T22:01:25.769Z,67.29
2023-10-11T22:03:56.930Z,67.27
2023-10-11T22:06:26.634Z,67.24
2023-10-11T22:08:56.854Z,67.26
2023-10-11T22:11:28.748Z,67.21
2023-10-11T22:14:01.167Z,67.23
2023-10-11T22:16:30.469Z,67.19
2023-10-11T22:19:00.469Z,67.27
2023-10-11T22:21:29.104Z,67.26
2023-10-11T22:23:58.464Z,67.31
2023-10-11T22:26:27.888Z,67.25
2023-10-11T22:28:56.534Z,67.24
2023-10-11T22:31:26.034Z,67.29
2023-10-11T22:33:56.227Z,67.22
2023-10-11T22:36:30.656Z,67.17
2023-10-11T22:39:01.980Z,67.24
2023-10-11T22:41:31.310Z,67.22
2023-10-11T22:44:00.173Z,67.23
2023-10-11T22:46:28.896Z,67.27
2023-10-11T22:48:57.899Z,67.26
2023-10-11T22:51:29.029Z,67.28
2023-10-11T22:54:02.038Z,67.35
2023-10-11T22:56:32.156Z,67.32
2023-10-11T22:59:06.064Z,67.28
2023-10-11T23:01:38.646Z,67.32
2023-10-11T23:04:09.217Z,67.26
2023-10-11T23:06:38.686Z,67.31
2023-10-11T23:09:07.567Z,67.28
2023-10-11T23:11:44.243Z,67.31
2023-10-11T23:14:13.274Z,67.35
2023-10-11T23:16:42.073Z,67.33
2023-10-11T23:19:20.799Z,67.41
2023-10-11T23:21:54.503Z,67.43
2023-10-11T23:24:42.507Z,67.41
2023-10-11T23:27:12.859Z,67.38
2023-10-11T23:29:41.484Z,67.39
2023-10-11T23:32:13.793Z,67.29
2023-10-11T23:34:43.115Z,67.32
2023-10-11T23:37:16.560Z,67.28
2023-10-11T23:40:05.615Z,67.36
2023-10-11T23:42:36.194Z,67.34
2023-10-11T23:45:17.149Z,67.41
2023-10-11T23:47:49.456Z,67.50
2023-10-11T23:50:22.411Z,67.43
2023-10-11T23:53:16.611Z,67.47
2023-10-11T23:55:45.581Z,67.47
2023-10-11T23:58:22.746Z,67.56
